sensor_id;sensor_type;location;lat;lon;timestamp;P1;durP1;ratioP1;P2;durP2;ratioP2
20739;SDS011;10530;49.968;19.844;2023-03-11T00:04:40;6.30;;;2.63;;
20739;SDS011;10530;49.968;19.844;2023-03-11T00:09:43;6.20;;;2.45;;
20739;SDS011;10530;49.968;19.844;2023-03-11T00:14:46;5.03;;;1.90;;
20739;SDS011;10530;49.968;19.844;2023-03-11T00:19:48;6.93;;;2.80;;
20739;SDS011;10530;49.968;19.844;2023-03-11T00:24:51;4.30;;;1.38;;
20739;SDS011;10530;49.968;19.844;2023-03-11T00:29:53;5.45;;;2.20;;
20739;SDS011;10530;49.968;19.844;2023-03-11T00:34:56;7.28;;;2.80;;
20739;SDS011;10530;49.968;19.844;2023-03-11T00:39:59;7.67;;;2.77;;
20739;SDS011;10530;49.968;19.844;2023-03-11T00:45:02;6.55;;;2.42;;
20739;SDS011;10530;49.968;19.844;2023-03-11T00:50:06;7.20;;;2.72;;
20739;SDS011;10530;49.968;19.844;2023-03-11T00:55:11;7.55;;;2.40;;
20739;SDS011;10530;49.968;19.844;2023-03-11T01:00:17;6.95;;;2.97;;
20739;SDS011;10530;49.968;19.844;2023-03-11T01:05:22;7.23;;;2.10;;
20739;SDS011;10530;49.968;19.844;2023-03-11T01:10:28;6.35;;;1.77;;
20739;SDS011;10530;49.968;19.844;2023-03-11T01:15:33;6.22;;;2.35;;
20739;SDS011;10530;49.968;19.844;2023-03-11T01:20:37;4.25;;;1.92;;
20739;SDS011;10530;49.968;19.844;2023-03-11T01:25:40;5.78;;;2.40;;
20739;SDS011;10530;49.968;19.844;2023-03-11T01:30:43;7.27;;;2.70;;
20739;SDS011;10530;49.968;19.844;2023-03-11T01:35:46;7.05;;;2.47;;
20739;SDS011;10530;49.968;19.844;2023-03-11T01:40:50;5.65;;;1.92;;
20739;SDS011;10530;49.968;19.844;2023-03-11T01:50:59;3.67;;;1.10;;
20739;SDS011;10530;49.968;19.844;2023-03-11T01:56:02;4.43;;;1.30;;
20739;SDS011;10530;49.968;19.844;2023-03-11T02:01:07;3.20;;;1.25;;
20739;SDS011;10530;49.968;19.844;2023-03-11T02:06:11;2.63;;;0.70;;
20739;SDS011;10530;49.968;19.844;2023-03-11T02:11:21;2.65;;;0.80;;
20739;SDS011;10530;49.968;19.844;2023-03-11T02:16:27;2.60;;;0.70;;
20739;SDS011;10530;49.968;19.844;2023-03-11T02:21:31;2.33;;;0.60;;
20739;SDS011;10530;49.968;19.844;2023-03-11T02:26:39;4.82;;;0.95;;
20739;SDS011;10530;49.968;19.844;2023-03-11T02:31:53;1.88;;;0.47;;
20739;SDS011;10530;49.968;19.844;2023-03-11T02:36:58;1.90;;;0.60;;
20739;SDS011;10530;49.968;19.844;2023-03-11T02:42:12;1.95;;;0.50;;
20739;SDS011;10530;49.968;19.844;2023-03-11T02:47:20;3.77;;;0.60;;
20739;SDS011;10530;49.968;19.844;2023-03-11T02:52:24;2.50;;;0.60;;
20739;SDS011;10530;49.968;19.844;2023-03-11T02:57:29;2.17;;;0.40;;
20739;SDS011;10530;49.968;19.844;2023-03-11T03:02:32;1.90;;;0.45;;
20739;SDS011;10530;49.968;19.844;2023-03-11T03:07:35;1.42;;;0.30;;
20739;SDS011;10530;49.968;19.844;2023-03-11T03:12:38;1.50;;;0.30;;
20739;SDS011;10530;49.968;19.844;2023-03-11T03:17:41;1.80;;;0.47;;
20739;SDS011;10530;49.968;19.844;2023-03-11T03:22:44;1.45;;;0.43;;
20739;SDS011;10530;49.968;19.844;2023-03-11T03:27:49;1.80;;;0.55;;
20739;SDS011;10530;49.968;19.844;2023-03-11T03:32:53;1.85;;;0.43;;
20739;SDS011;10530;49.968;19.844;2023-03-11T03:37:57;2.17;;;0.50;;
20739;SDS011;10530;49.968;19.844;2023-03-11T03:43:00;1.85;;;0.50;;
20739;SDS011;10530;49.968;19.844;2023-03-11T03:48:04;2.03;;;0.60;;
20739;SDS011;10530;49.968;19.844;2023-03-11T03:53:12;2.28;;;0.80;;
20739;SDS011;10530;49.968;19.844;2023-03-11T03:58:16;3.58;;;0.85;;
20739;SDS011;10530;49.968;19.844;2023-03-11T04:03:18;2.20;;;0.60;;
20739;SDS011;10530;49.968;19.844;2023-03-11T04:08:28;2.25;;;0.70;;
20739;SDS011;10530;49.968;19.844;2023-03-11T04:13:30;2.63;;;0.77;;
20739;SDS011;10530;49.968;19.844;2023-03-11T04:18:34;2.45;;;0.70;;
20739;SDS011;10530;49.968;19.844;2023-03-11T04:23:36;3.00;;;0.75;;
20739;SDS011;10530;49.968;19.844;2023-03-11T04:28:41;2.63;;;0.77;;
20739;SDS011;10530;49.968;19.844;2023-03-11T04:33:44;2.28;;;0.65;;
20739;SDS011;10530;49.968;19.844;2023-03-11T04:38:47;3.28;;;0.80;;
20739;SDS011;10530;49.968;19.844;2023-03-11T04:43:50;2.15;;;0.60;;
20739;SDS011;10530;49.968;19.844;2023-03-11T04:48:53;2.08;;;0.63;;
20739;SDS011;10530;49.968;19.844;2023-03-11T04:53:56;2.80;;;0.90;;
20739;SDS011;10530;49.968;19.844;2023-03-11T04:59:01;2.67;;;0.90;;
20739;SDS011;10530;49.968;19.844;2023-03-11T05:04:06;2.10;;;0.68;;
20739;SDS011;10530;49.968;19.844;2023-03-11T05:09:09;2.55;;;0.80;;
20739;SDS011;10530;49.968;19.844;2023-03-11T05:14:14;4.55;;;0.70;;
20739;SDS011;10530;49.968;19.844;2023-03-11T05:19:16;3.33;;;0.80;;
20739;SDS011;10530;49.968;19.844;2023-03-11T05:24:43;2.28;;;0.70;;
20739;SDS011;10530;49.968;19.844;2023-03-11T05:29:48;3.53;;;1.13;;
20739;SDS011;10530;49.968;19.844;2023-03-11T05:34:52;2.83;;;1.00;;
20739;SDS011;10530;49.968;19.844;2023-03-11T05:39:54;3.00;;;0.90;;
20739;SDS011;10530;49.968;19.844;2023-03-11T05:44:57;3.80;;;1.10;;
20739;SDS011;10530;49.968;19.844;2023-03-11T05:50:01;3.17;;;1.25;;
20739;SDS011;10530;49.968;19.844;2023-03-11T05:55:05;5.30;;;1.90;;
20739;SDS011;10530;49.968;19.844;2023-03-11T06:00:08;3.00;;;0.90;;
20739;SDS011;10530;49.968;19.844;2023-03-11T06:05:15;2.40;;;0.70;;
20739;SDS011;10530;49.968;19.844;2023-03-11T06:10:20;2.70;;;0.80;;
20739;SDS011;10530;49.968;19.844;2023-03-11T06:15:23;1.95;;;0.50;;
20739;SDS011;10530;49.968;19.844;2023-03-11T06:20:27;4.25;;;0.90;;
20739;SDS011;10530;49.968;19.844;2023-03-11T06:25:30;3.03;;;0.73;;
20739;SDS011;10530;49.968;19.844;2023-03-11T06:30:34;2.40;;;0.80;;
20739;SDS011;10530;49.968;19.844;2023-03-11T06:35:44;2.20;;;0.80;;
20739;SDS011;10530;49.968;19.844;2023-03-11T06:41:00;2.13;;;0.55;;
20739;SDS011;10530;49.968;19.844;2023-03-11T06:46:07;2.10;;;0.63;;
20739;SDS011;10530;49.968;19.844;2023-03-11T06:51:12;2.00;;;0.52;;
20739;SDS011;10530;49.968;19.844;2023-03-11T06:56:16;1.85;;;0.60;;
20739;SDS011;10530;49.968;19.844;2023-03-11T07:01:24;4.37;;;1.10;;
20739;SDS011;10530;49.968;19.844;2023-03-11T07:06:31;2.08;;;0.60;;
20739;SDS011;10530;49.968;19.844;2023-03-11T07:11:46;2.67;;;0.60;;
20739;SDS011;10530;49.968;19.844;2023-03-11T07:16:56;3.28;;;1.27;;
20739;SDS011;10530;49.968;19.844;2023-03-11T07:22:10;3.28;;;0.90;;
20739;SDS011;10530;49.968;19.844;2023-03-11T07:27:13;2.70;;;0.97;;
20739;SDS011;10530;49.968;19.844;2023-03-11T07:32:16;2.60;;;0.85;;
20739;SDS011;10530;49.968;19.844;2023-03-11T07:37:19;3.42;;;0.85;;
20739;SDS011;10530;49.968;19.844;2023-03-11T07:42:22;3.83;;;1.23;;
20739;SDS011;10530;49.968;19.844;2023-03-11T07:47:26;5.47;;;1.65;;
20739;SDS011;10530;49.968;19.844;2023-03-11T07:52:30;4.97;;;1.80;;
20739;SDS011;10530;49.968;19.844;2023-03-11T07:57:33;4.65;;;1.55;;
20739;SDS011;10530;49.968;19.844;2023-03-11T08:02:36;4.15;;;1.63;;
20739;SDS011;10530;49.968;19.844;2023-03-11T08:07:39;6.63;;;3.45;;
20739;SDS011;10530;49.968;19.844;2023-03-11T08:12:41;5.30;;;2.65;;
20739;SDS011;10530;49.968;19.844;2023-03-11T08:17:44;5.07;;;2.30;;
20739;SDS011;10530;49.968;19.844;2023-03-11T08:22:47;5.45;;;2.30;;
20739;SDS011;10530;49.968;19.844;2023-03-11T08:27:58;3.72;;;1.20;;
20739;SDS011;10530;49.968;19.844;2023-03-11T08:33:01;3.15;;;1.17;;
20739;SDS011;10530;49.968;19.844;2023-03-11T08:38:05;6.60;;;2.20;;
20739;SDS011;10530;49.968;19.844;2023-03-11T08:43:10;6.43;;;1.67;;
20739;SDS011;10530;49.968;19.844;2023-03-11T08:48:14;2.28;;;0.85;;
20739;SDS011;10530;49.968;19.844;2023-03-11T08:53:17;3.65;;;1.42;;
20739;SDS011;10530;49.968;19.844;2023-03-11T08:58:20;3.03;;;1.20;;
20739;SDS011;10530;49.968;19.844;2023-03-11T09:03:23;3.70;;;1.92;;
20739;SDS011;10530;49.968;19.844;2023-03-11T09:08:26;3.80;;;1.50;;
20739;SDS011;10530;49.968;19.844;2023-03-11T09:13:30;4.10;;;1.55;;
20739;SDS011;10530;49.968;19.844;2023-03-11T09:18:34;2.75;;;1.02;;
20739;SDS011;10530;49.968;19.844;2023-03-11T09:23:37;3.63;;;1.35;;
20739;SDS011;10530;49.968;19.844;2023-03-11T09:28:41;5.07;;;1.60;;
20739;SDS011;10530;49.968;19.844;2023-03-11T09:39:32;4.40;;;2.03;;
20739;SDS011;10530;49.968;19.844;2023-03-11T09:44:36;4.43;;;1.33;;
20739;SDS011;10530;49.968;19.844;2023-03-11T09:54:56;4.60;;;1.55;;
20739;SDS011;10530;49.968;19.844;2023-03-11T10:05:41;4.07;;;1.67;;
20739;SDS011;10530;49.968;19.844;2023-03-11T10:10:48;5.75;;;1.88;;
20739;SDS011;10530;49.968;19.844;2023-03-11T10:16:00;4.15;;;1.63;;
20739;SDS011;10530;49.968;19.844;2023-03-11T10:26:19;5.60;;;2.47;;
20739;SDS011;10530;49.968;19.844;2023-03-11T10:37:32;5.95;;;2.25;;
20739;SDS011;10530;49.968;19.844;2023-03-11T10:42:50;3.70;;;1.10;;
20739;SDS011;10530;49.968;19.844;2023-03-11T10:47:55;2.53;;;1.15;;
20739;SDS011;10530;49.968;19.844;2023-03-11T10:53:11;2.53;;;0.83;;
20739;SDS011;10530;49.968;19.844;2023-03-11T10:58:18;3.72;;;1.67;;
20739;SDS011;10530;49.968;19.844;2023-03-11T11:03:24;3.83;;;1.50;;
20739;SDS011;10530;49.968;19.844;2023-03-11T11:08:27;4.10;;;1.63;;
20739;SDS011;10530;49.968;19.844;2023-03-11T11:13:31;3.13;;;0.93;;
20739;SDS011;10530;49.968;19.844;2023-03-11T11:18:36;5.33;;;1.23;;
20739;SDS011;10530;49.968;19.844;2023-03-11T11:23:49;4.88;;;1.70;;
20739;SDS011;10530;49.968;19.844;2023-03-11T11:34:28;5.50;;;2.20;;
20739;SDS011;10530;49.968;19.844;2023-03-11T11:39:39;3.65;;;1.67;;
20739;SDS011;10530;49.968;19.844;2023-03-11T11:45:03;5.30;;;2.33;;
20739;SDS011;10530;49.968;19.844;2023-03-11T11:50:13;3.35;;;1.35;;
20739;SDS011;10530;49.968;19.844;2023-03-11T11:55:53;3.95;;;1.65;;
20739;SDS011;10530;49.968;19.844;2023-03-11T12:06:18;6.55;;;2.08;;
20739;SDS011;10530;49.968;19.844;2023-03-11T12:11:52;3.90;;;1.27;;
20739;SDS011;10530;49.968;19.844;2023-03-11T12:17:15;3.95;;;1.70;;
20739;SDS011;10530;49.968;19.844;2023-03-11T12:33:03;3.63;;;1.33;;
20739;SDS011;10530;49.968;19.844;2023-03-11T12:38:20;2.83;;;1.30;;
20739;SDS011;10530;49.968;19.844;2023-03-11T12:48:46;6.35;;;2.28;;
20739;SDS011;10530;49.968;19.844;2023-03-11T12:54:27;6.20;;;1.58;;
20739;SDS011;10530;49.968;19.844;2023-03-11T13:05:20;6.50;;;3.00;;
20739;SDS011;10530;49.968;19.844;2023-03-11T13:10:49;6.70;;;2.28;;
20739;SDS011;10530;49.968;19.844;2023-03-11T13:15:53;2.97;;;1.52;;
20739;SDS011;10530;49.968;19.844;2023-03-11T13:20:57;3.60;;;1.25;;
20739;SDS011;10530;49.968;19.844;2023-03-11T13:31:38;3.33;;;1.13;;
20739;SDS011;10530;49.968;19.844;2023-03-11T13:42:01;8.38;;;2.55;;
20739;SDS011;10530;49.968;19.844;2023-03-11T13:47:12;6.47;;;1.77;;
20739;SDS011;10530;49.968;19.844;2023-03-11T13:57:51;4.10;;;1.70;;
20739;SDS011;10530;49.968;19.844;2023-03-11T14:03:00;5.35;;;2.35;;
20739;SDS011;10530;49.968;19.844;2023-03-11T14:13:14;4.03;;;1.65;;
20739;SDS011;10530;49.968;19.844;2023-03-11T14:18:35;4.95;;;2.35;;
20739;SDS011;10530;49.968;19.844;2023-03-11T14:23:43;4.10;;;1.67;;
20739;SDS011;10530;49.968;19.844;2023-03-11T14:28:51;4.63;;;1.42;;
20739;SDS011;10530;49.968;19.844;2023-03-11T14:33:58;4.20;;;1.05;;
20739;SDS011;10530;49.968;19.844;2023-03-11T14:39:15;6.57;;;2.65;;
20739;SDS011;10530;49.968;19.844;2023-03-11T14:44:27;5.28;;;2.42;;
20739;SDS011;10530;49.968;19.844;2023-03-11T14:49:33;6.03;;;3.07;;
20739;SDS011;10530;49.968;19.844;2023-03-11T14:54:37;9.40;;;2.92;;
20739;SDS011;10530;49.968;19.844;2023-03-11T14:59:40;9.05;;;2.28;;
20739;SDS011;10530;49.968;19.844;2023-03-11T15:04:44;6.87;;;2.63;;
20739;SDS011;10530;49.968;19.844;2023-03-11T15:09:48;5.40;;;2.30;;
20739;SDS011;10530;49.968;19.844;2023-03-11T15:14:51;7.20;;;2.30;;
20739;SDS011;10530;49.968;19.844;2023-03-11T15:19:54;3.65;;;1.42;;
20739;SDS011;10530;49.968;19.844;2023-03-11T15:24:57;11.85;;;2.50;;
20739;SDS011;10530;49.968;19.844;2023-03-11T15:30:03;6.73;;;2.40;;
20739;SDS011;10530;49.968;19.844;2023-03-11T15:35:27;7.90;;;2.60;;
20739;SDS011;10530;49.968;19.844;2023-03-11T15:40:31;9.53;;;3.30;;
20739;SDS011;10530;49.968;19.844;2023-03-11T15:45:46;7.55;;;3.00;;
20739;SDS011;10530;49.968;19.844;2023-03-11T15:50:53;3.35;;;1.13;;
20739;SDS011;10530;49.968;19.844;2023-03-11T15:55:59;6.30;;;3.07;;
20739;SDS011;10530;49.968;19.844;2023-03-11T16:01:09;11.05;;;4.05;;
20739;SDS011;10530;49.968;19.844;2023-03-11T16:06:12;9.30;;;3.47;;
20739;SDS011;10530;49.968;19.844;2023-03-11T16:11:15;8.65;;;2.95;;
20739;SDS011;10530;49.968;19.844;2023-03-11T16:16:20;6.97;;;2.80;;
20739;SDS011;10530;49.968;19.844;2023-03-11T16:21:26;7.10;;;3.63;;
20739;SDS011;10530;49.968;19.844;2023-03-11T16:26:36;9.40;;;3.50;;
20739;SDS011;10530;49.968;19.844;2023-03-11T16:35:59;7.97;;;3.80;;
20739;SDS011;10530;49.968;19.844;2023-03-11T16:41:02;6.30;;;3.03;;
20739;SDS011;10530;49.968;19.844;2023-03-11T16:46:05;9.25;;;3.45;;
20739;SDS011;10530;49.968;19.844;2023-03-11T16:51:08;13.53;;;4.63;;
20739;SDS011;10530;49.968;19.844;2023-03-11T16:56:10;8.40;;;2.72;;
20739;SDS011;10530;49.968;19.844;2023-03-11T17:01:14;6.47;;;2.23;;
20739;SDS011;10530;49.968;19.844;2023-03-11T17:06:19;6.43;;;3.13;;
20739;SDS011;10530;49.968;19.844;2023-03-11T17:11:23;8.40;;;3.03;;
20739;SDS011;10530;49.968;19.844;2023-03-11T17:16:29;7.60;;;3.50;;
20739;SDS011;10530;49.968;19.844;2023-03-11T17:21:34;11.68;;;3.80;;
20739;SDS011;10530;49.968;19.844;2023-03-11T17:26:37;7.90;;;3.10;;
20739;SDS011;10530;49.968;19.844;2023-03-11T17:31:40;9.85;;;3.88;;
20739;SDS011;10530;49.968;19.844;2023-03-11T17:36:43;7.38;;;3.08;;
20739;SDS011;10530;49.968;19.844;2023-03-11T17:41:46;9.37;;;3.47;;
20739;SDS011;10530;49.968;19.844;2023-03-11T17:46:49;3.83;;;1.83;;
20739;SDS011;10530;49.968;19.844;2023-03-11T17:51:52;4.60;;;2.07;;
20739;SDS011;10530;49.968;19.844;2023-03-11T17:56:55;7.30;;;3.03;;
20739;SDS011;10530;49.968;19.844;2023-03-11T18:01:58;5.13;;;2.67;;
20739;SDS011;10530;49.968;19.844;2023-03-11T18:07:01;8.40;;;3.23;;
20739;SDS011;10530;49.968;19.844;2023-03-11T18:12:04;2.92;;;1.48;;
20739;SDS011;10530;49.968;19.844;2023-03-11T18:17:07;10.50;;;3.03;;
20739;SDS011;10530;49.968;19.844;2023-03-11T18:22:11;6.05;;;2.22;;
20739;SDS011;10530;49.968;19.844;2023-03-11T18:27:14;8.13;;;3.22;;
20739;SDS011;10530;49.968;19.844;2023-03-11T18:32:18;4.80;;;2.23;;
20739;SDS011;10530;49.968;19.844;2023-03-11T18:37:22;4.43;;;1.20;;
20739;SDS011;10530;49.968;19.844;2023-03-11T18:42:26;5.40;;;2.47;;
20739;SDS011;10530;49.968;19.844;2023-03-11T18:47:32;7.72;;;2.53;;
20739;SDS011;10530;49.968;19.844;2023-03-11T18:52:36;5.32;;;2.08;;
20739;SDS011;10530;49.968;19.844;2023-03-11T18:57:39;4.40;;;2.07;;
20739;SDS011;10530;49.968;19.844;2023-03-11T19:02:44;8.65;;;3.60;;
20739;SDS011;10530;49.968;19.844;2023-03-11T19:07:50;6.27;;;2.60;;
20739;SDS011;10530;49.968;19.844;2023-03-11T19:12:54;9.25;;;3.88;;
20739;SDS011;10530;49.968;19.844;2023-03-11T19:17:56;8.02;;;3.00;;
20739;SDS011;10530;49.968;19.844;2023-03-11T19:23:07;7.03;;;2.70;;
20739;SDS011;10530;49.968;19.844;2023-03-11T19:28:10;8.30;;;2.28;;
20739;SDS011;10530;49.968;19.844;2023-03-11T19:33:13;7.97;;;2.57;;
20739;SDS011;10530;49.968;19.844;2023-03-11T19:38:15;9.38;;;3.80;;
20739;SDS011;10530;49.968;19.844;2023-03-11T19:43:18;10.63;;;4.47;;
20739;SDS011;10530;49.968;19.844;2023-03-11T19:48:22;8.63;;;3.07;;
20739;SDS011;10530;49.968;19.844;2023-03-11T19:53:25;11.35;;;4.72;;
20739;SDS011;10530;49.968;19.844;2023-03-11T19:58:28;9.00;;;4.13;;
20739;SDS011;10530;49.968;19.844;2023-03-11T20:03:31;4.72;;;2.30;;
20739;SDS011;10530;49.968;19.844;2023-03-11T20:08:34;10.95;;;3.45;;
20739;SDS011;10530;49.968;19.844;2023-03-11T20:13:38;4.57;;;2.17;;
20739;SDS011;10530;49.968;19.844;2023-03-11T20:18:44;17.08;;;5.78;;
20739;SDS011;10530;49.968;19.844;2023-03-11T20:23:51;9.83;;;3.73;;
20739;SDS011;10530;49.968;19.844;2023-03-11T20:28:55;10.85;;;4.68;;
20739;SDS011;10530;49.968;19.844;2023-03-11T20:33:58;10.63;;;4.13;;
20739;SDS011;10530;49.968;19.844;2023-03-11T20:39:02;10.60;;;4.47;;
20739;SDS011;10530;49.968;19.844;2023-03-11T20:44:10;8.02;;;3.67;;
20739;SDS011;10530;49.968;19.844;2023-03-11T20:49:14;8.23;;;4.10;;
20739;SDS011;10530;49.968;19.844;2023-03-11T20:54:17;6.93;;;2.30;;
20739;SDS011;10530;49.968;19.844;2023-03-11T20:59:20;10.25;;;4.63;;
20739;SDS011;10530;49.968;19.844;2023-03-11T21:04:23;9.13;;;3.40;;
20739;SDS011;10530;49.968;19.844;2023-03-11T21:09:26;9.35;;;3.88;;
20739;SDS011;10530;49.968;19.844;2023-03-11T21:14:29;10.93;;;3.83;;
20739;SDS011;10530;49.968;19.844;2023-03-11T21:19:32;7.85;;;3.72;;
20739;SDS011;10530;49.968;19.844;2023-03-11T21:24:35;11.77;;;4.80;;
20739;SDS011;10530;49.968;19.844;2023-03-11T21:29:38;13.27;;;4.27;;
20739;SDS011;10530;49.968;19.844;2023-03-11T21:34:41;20.35;;;5.88;;
20739;SDS011;10530;49.968;19.844;2023-03-11T21:39:43;12.73;;;4.37;;
20739;SDS011;10530;49.968;19.844;2023-03-11T21:44:46;7.90;;;3.33;;
20739;SDS011;10530;49.968;19.844;2023-03-11T21:49:49;9.25;;;4.28;;
20739;SDS011;10530;49.968;19.844;2023-03-11T21:54:52;11.67;;;5.27;;
20739;SDS011;10530;49.968;19.844;2023-03-11T21:59:55;12.93;;;4.55;;
20739;SDS011;10530;49.968;19.844;2023-03-11T22:04:58;8.10;;;3.77;;
20739;SDS011;10530;49.968;19.844;2023-03-11T22:10:00;11.30;;;5.35;;
20739;SDS011;10530;49.968;19.844;2023-03-11T22:15:03;13.18;;;5.32;;
20739;SDS011;10530;49.968;19.844;2023-03-11T22:20:07;11.70;;;4.27;;
20739;SDS011;10530;49.968;19.844;2023-03-11T22:25:11;8.27;;;4.05;;
20739;SDS011;10530;49.968;19.844;2023-03-11T22:30:13;11.27;;;5.90;;
20739;SDS011;10530;49.968;19.844;2023-03-11T22:35:16;10.55;;;5.15;;
20739;SDS011;10530;49.968;19.844;2023-03-11T22:40:19;9.95;;;3.53;;
20739;SDS011;10530;49.968;19.844;2023-03-11T22:45:22;9.13;;;3.60;;
20739;SDS011;10530;49.968;19.844;2023-03-11T22:50:25;12.45;;;4.47;;
20739;SDS011;10530;49.968;19.844;2023-03-11T22:55:27;14.30;;;5.57;;
20739;SDS011;10530;49.968;19.844;2023-03-11T23:00:30;16.73;;;4.85;;
20739;SDS011;10530;49.968;19.844;2023-03-11T23:05:33;10.82;;;3.95;;
20739;SDS011;10530;49.968;19.844;2023-03-11T23:10:43;11.33;;;3.13;;
20739;SDS011;10530;49.968;19.844;2023-03-11T23:15:47;10.27;;;4.43;;
20739;SDS011;10530;49.968;19.844;2023-03-11T23:20:50;7.43;;;3.57;;
20739;SDS011;10530;49.968;19.844;2023-03-11T23:25:53;13.82;;;5.30;;
20739;SDS011;10530;49.968;19.844;2023-03-11T23:30:56;11.68;;;4.30;;
20739;SDS011;10530;49.968;19.844;2023-03-11T23:36:05;8.13;;;3.93;;
20739;SDS011;10530;49.968;19.844;2023-03-11T23:41:10;12.27;;;3.83;;
20739;SDS011;10530;49.968;19.844;2023-03-11T23:46:15;12.90;;;5.27;;
20739;SDS011;10530;49.968;19.844;2023-03-11T23:51:17;10.52;;;4.45;;
20739;SDS011;10530;49.968;19.844;2023-03-11T23:56:20;9.48;;;4.43;;
